Time;durP1;ratioP1;P1;durP2;ratioP2;P2;SDS_P1;SDS_P2;PMS_P1;PMS_P2;Temp;Humidity;BMP_temperature;BMP_pressure;BME280_temperature;BME280_humidity;BME280_pressure;Samples;Min_cycle;Max_cycle;Signal;HPM_P1;HPM_P2
2023/04/27 00:01:51;;;;;;;5.65;2.42;;;;;;;;;;4946600;28;100056;-84
2023/04/27 00:04:17;;;;;;;6.03;2.30;;;;;;;;;;4946285;28;99690;-83
2023/04/27 00:06:44;;;;;;;6.78;2.50;;;;;;;;;;4951180;28;99772;-83
2023/04/27 00:09:11;;;;;;;7.20;2.50;;;;;;;;;;4952056;28;98892;-84
2023/04/27 00:11:38;;;;;;;6.63;2.70;;;;;;;;;;4929031;28;98816;-84
2023/04/27 00:14:04;;;;;;;7.60;2.72;;;;;;;;;;4946024;28;99521;-83
2023/04/27 00:16:31;;;;;;;6.57;2.50;;;;;;;;;;4945979;28;99025;-84
2023/04/27 00:18:58;;;;;;;6.85;2.33;;;;;;;;;;4947663;28;99688;-83
2023/04/27 00:21:24;;;;;;;7.00;2.45;;;;;;;;;;4947689;28;99437;-83
2023/04/27 00:23:51;;;;;;;5.95;2.40;;;;;;;;;;4950273;28;98601;-83
2023/04/27 00:26:17;;;;;;;5.72;2.20;;;;;;;;;;4954290;28;99639;-82
2023/04/27 00:28:47;;;;;;;5.57;2.47;;;;;;;;;;4947583;28;101449;-83
2023/04/27 00:31:13;;;;;;;7.03;2.47;;;;;;;;;;4947232;28;101572;-83
2023/04/27 00:33:40;;;;;;;5.93;2.75;;;;;;;;;;4948305;28;102230;-83
2023/04/27 00:36:07;;;;;;;8.05;2.38;;;;;;;;;;4950789;28;98839;-83
2023/04/27 00:38:33;;;;;;;8.05;2.55;;;;;;;;;;4953424;28;98854;-84
2023/04/27 00:41:04;;;;;;;6.03;2.10;;;;;;;;;;4946712;28;101616;-83
2023/04/27 00:43:31;;;;;;;7.32;2.20;;;;;;;;;;4930350;28;98680;-84
2023/04/27 00:45:58;;;;;;;6.50;2.15;;;;;;;;;;4946152;28;102577;-83
2023/04/27 00:48:25;;;;;;;5.95;2.40;;;;;;;;;;4945265;28;102141;-83
2023/04/27 00:50:51;;;;;;;8.35;2.60;;;;;;;;;;4947259;28;98882;-83
2023/04/27 00:53:18;;;;;;;6.38;2.33;;;;;;;;;;4948892;28;101147;-84
2023/04/27 00:55:45;;;;;;;5.47;2.25;;;;;;;;;;4957089;28;98862;-84
2023/04/27 00:58:12;;;;;;;5.35;2.35;;;;;;;;;;4948151;28;98884;-83
2023/04/27 01:00:39;;;;;;;6.72;2.47;;;;;;;;;;4962766;28;102495;-84
2023/04/27 01:03:06;;;;;;;6.30;2.10;;;;;;;;;;4957088;28;98866;-84
2023/04/27 01:05:33;;;;;;;5.90;2.17;;;;;;;;;;4950956;28;98864;-83
2023/04/27 01:08:00;;;;;;;5.25;2.42;;;;;;;;;;4959190;28;102111;-84
2023/04/27 01:10:27;;;;;;;4.85;2.13;;;;;;;;;;4951134;28;97862;-83
2023/04/27 01:12:54;;;;;;;6.32;2.28;;;;;;;;;;4949176;28;99108;-84
2023/04/27 01:15:21;;;;;;;4.22;2.00;;;;;;;;;;4927381;28;98929;-86
2023/04/27 01:17:47;;;;;;;5.07;2.33;;;;;;;;;;4945361;28;100264;-86
2023/04/27 01:20:14;;;;;;;5.97;2.28;;;;;;;;;;4942938;28;100746;-82
2023/04/27 01:22:42;;;;;;;5.15;2.33;;;;;;;;;;4943646;28;98881;-83
2023/04/27 01:25:08;;;;;;;4.22;1.83;;;;;;;;;;4945404;28;101035;-83
2023/04/27 01:27:35;;;;;;;4.40;1.90;;;;;;;;;;4945131;28;99056;-83
2023/04/27 01:30:02;;;;;;;4.97;2.25;;;;;;;;;;4945306;28;98848;-84
2023/04/27 01:32:29;;;;;;;6.15;2.10;;;;;;;;;;4927282;28;101755;-83
2023/04/27 01:34:56;;;;;;;5.63;2.28;;;;;;;;;;4949100;28;98973;-85
2023/04/27 01:37:25;;;;;;;5.18;2.20;;;;;;;;;;4929490;28;100009;-85
2023/04/27 01:39:51;;;;;;;6.07;2.17;;;;;;;;;;4928885;28;100435;-85
2023/04/27 01:42:18;;;;;;;4.90;2.05;;;;;;;;;;4928411;28;99671;-84
2023/04/27 01:44:44;;;;;;;6.90;2.22;;;;;;;;;;4941403;28;100920;-84
2023/04/27 01:47:10;;;;;;;6.20;2.15;;;;;;;;;;4942981;28;100934;-84
2023/04/27 01:49:38;;;;;;;5.57;2.28;;;;;;;;;;4932608;28;98966;-85
2023/04/27 01:52:05;;;;;;;5.07;2.10;;;;;;;;;;4943293;28;98975;-84
2023/04/27 01:54:32;;;;;;;4.82;1.90;;;;;;;;;;4929276;28;102003;-85
2023/04/27 01:56:58;;;;;;;5.15;2.22;;;;;;;;;;4941388;28;100194;-86
2023/04/27 01:59:25;;;;;;;5.20;2.00;;;;;;;;;;4927643;28;101444;-85
2023/04/27 02:01:52;;;;;;;5.32;1.90;;;;;;;;;;4950379;28;99087;-84
2023/04/27 02:04:19;;;;;;;4.85;1.92;;;;;;;;;;4934573;28;98991;-84
2023/04/27 02:06:46;;;;;;;4.38;1.90;;;;;;;;;;4942689;28;102485;-85
2023/04/27 02:09:12;;;;;;;4.45;1.80;;;;;;;;;;4947771;28;98989;-84
2023/04/27 02:11:39;;;;;;;5.05;2.10;;;;;;;;;;4937873;28;99418;-84
2023/04/27 02:14:06;;;;;;;4.30;1.90;;;;;;;;;;4931077;28;101713;-84
2023/04/27 02:16:35;;;;;;;4.85;2.00;;;;;;;;;;4937964;28;99506;-85
2023/04/27 02:19:03;;;;;;;4.68;2.05;;;;;;;;;;4944323;28;99027;-84
2023/04/27 02:21:29;;;;;;;3.90;1.80;;;;;;;;;;4926661;28;98640;-85
2023/04/27 02:23:56;;;;;;;4.82;2.13;;;;;;;;;;4941946;28;101522;-83
2023/04/27 02:26:28;;;;;;;6.10;2.42;;;;;;;;;;4925693;28;101607;-83
2023/04/27 02:28:55;;;;;;;5.57;2.10;;;;;;;;;;4942567;28;99075;-83
2023/04/27 02:31:22;;;;;;;4.32;2.00;;;;;;;;;;4945722;28;101398;-83
2023/04/27 02:33:49;;;;;;;3.65;1.80;;;;;;;;;;4950113;28;100190;-83
2023/04/27 02:36:16;;;;;;;5.80;2.13;;;;;;;;;;4944708;28;98927;-83
2023/04/27 02:38:42;;;;;;;4.70;1.90;;;;;;;;;;4929112;28;101740;-84
2023/04/27 02:41:09;;;;;;;4.45;1.95;;;;;;;;;;4942648;28;98926;-83
2023/04/27 02:43:35;;;;;;;6.35;1.90;;;;;;;;;;4945144;28;99219;-85
2023/04/27 02:46:04;;;;;;;6.05;2.20;;;;;;;;;;4942371;28;101607;-84
2023/04/27 02:48:32;;;;;;;8.27;1.98;;;;;;;;;;4943822;28;97770;-83
2023/04/27 02:50:58;;;;;;;;;;;;;;;;;;4945346;28;98778;-83
2023/04/27 02:53:25;;;;;;;7.85;2.35;;;;;;;;;;4944941;28;113187;-83
2023/04/27 02:55:51;;;;;;;7.97;1.95;;;;;;;;;;4938964;28;99451;-83
2023/04/27 02:58:18;;;;;;;6.68;1.92;;;;;;;;;;4936558;28;99478;-83
2023/04/27 03:00:45;;;;;;;12.15;2.15;;;;;;;;;;4946414;28;99396;-84
2023/04/27 03:03:14;;;;;;;7.07;1.92;;;;;;;;;;4910706;28;100234;-82
2023/04/27 03:05:41;;;;;;;6.78;2.00;;;;;;;;;;4943973;28;99067;-83
2023/04/27 03:08:07;;;;;;;6.93;1.83;;;;;;;;;;4927209;28;98693;-82
2023/04/27 03:10:34;;;;;;;6.55;1.90;;;;;;;;;;4939764;28;99116;-82
2023/04/27 03:13:01;;;;;;;7.38;2.08;;;;;;;;;;4945105;28;98239;-83
2023/04/27 03:15:28;;;;;;;3.50;1.50;;;;;;;;;;4944385;28;98960;-85
2023/04/27 03:17:54;;;;;;;5.28;1.88;;;;;;;;;;4944509;28;98899;-84
2023/04/27 03:20:21;;;;;;;5.03;2.00;;;;;;;;;;4943320;28;99948;-83
2023/04/27 03:22:47;;;;;;;6.60;1.85;;;;;;;;;;4930539;28;98676;-82
2023/04/27 03:25:14;;;;;;;5.50;1.80;;;;;;;;;;4913845;28;100926;-81
2023/04/27 03:27:42;;;;;;;5.43;1.88;;;;;;;;;;4943041;28;98487;-82
2023/04/27 03:30:10;;;;;;;6.45;1.65;;;;;;;;;;4926696;28;100275;-83
2023/04/27 03:32:37;;;;;;;6.70;1.90;;;;;;;;;;4925387;28;98997;-82
2023/04/27 03:35:04;;;;;;;5.68;1.98;;;;;;;;;;4946144;28;98647;-83
2023/04/27 03:37:31;;;;;;;3.95;1.65;;;;;;;;;;4946918;28;98777;-83
2023/04/27 03:39:58;;;;;;;4.70;1.63;;;;;;;;;;4947192;28;99922;-83
2023/04/27 03:42:25;;;;;;;4.95;1.70;;;;;;;;;;4929176;28;99031;-82
2023/04/27 03:44:52;;;;;;;3.92;1.70;;;;;;;;;;4949796;28;99147;-82
2023/04/27 03:47:18;;;;;;;6.70;1.60;;;;;;;;;;4947644;28;98674;-82
2023/04/27 03:49:45;;;;;;;4.65;1.70;;;;;;;;;;4945938;28;101283;-83
2023/04/27 03:52:12;;;;;;;5.93;1.73;;;;;;;;;;4947019;28;99272;-83
2023/04/27 03:54:38;;;;;;;5.05;1.75;;;;;;;;;;4947030;28;98942;-83
2023/04/27 03:57:05;;;;;;;6.50;1.80;;;;;;;;;;4946158;28;101986;-82
2023/04/27 03:59:31;;;;;;;4.78;1.92;;;;;;;;;;4946696;28;99561;-82
2023/04/27 04:01:58;;;;;;;3.65;1.70;;;;;;;;;;4930066;28;97812;-83
2023/04/27 04:04:26;;;;;;;3.50;1.70;;;;;;;;;;4951008;28;100435;-82
2023/04/27 04:06:53;;;;;;;4.45;1.55;;;;;;;;;;4944155;28;99309;-83
2023/04/27 04:09:21;;;;;;;3.97;1.63;;;;;;;;;;4945638;28;101292;-82
2023/04/27 04:11:50;;;;;;;4.22;1.80;;;;;;;;;;4948300;28;101519;-83
2023/04/27 04:14:17;;;;;;;4.85;1.80;;;;;;;;;;4931800;28;99013;-81
2023/04/27 04:16:44;;;;;;;6.68;1.70;;;;;;;;;;4950486;28;98988;-82
2023/04/27 04:19:11;;;;;;;3.53;1.70;;;;;;;;;;4934497;28;101841;-84
2023/04/27 04:21:41;;;;;;;9.85;2.20;;;;;;;;;;4952210;28;98881;-83
2023/04/27 04:24:09;;;;;;;4.32;1.80;;;;;;;;;;4948710;28;100768;-84
2023/04/27 04:26:36;;;;;;;5.63;2.10;;;;;;;;;;4952732;28;98544;-83
2023/04/27 04:29:02;;;;;;;5.75;2.00;;;;;;;;;;4935362;28;100552;-84
2023/04/27 04:31:29;;;;;;;7.13;2.20;;;;;;;;;;4950409;28;101787;-83
2023/04/27 04:33:56;;;;;;;3.20;1.52;;;;;;;;;;4928666;28;100123;-85
2023/04/27 04:36:22;;;;;;;4.35;1.75;;;;;;;;;;4946808;28;99545;-84
2023/04/27 04:38:53;;;;;;;4.15;1.80;;;;;;;;;;4952149;28;106858;-83
2023/04/27 04:41:20;;;;;;;5.05;2.03;;;;;;;;;;4933327;28;98645;-84
2023/04/27 04:43:48;;;;;;;3.95;1.80;;;;;;;;;;4945456;28;101752;-83
2023/04/27 04:46:16;;;;;;;4.75;1.80;;;;;;;;;;4961460;28;101551;-85
2023/04/27 04:48:42;;;;;;;6.03;1.70;;;;;;;;;;4968667;28;98565;-84
2023/04/27 04:51:10;;;;;;;4.05;1.60;;;;;;;;;;4960071;28;100926;-84
2023/04/27 04:53:36;;;;;;;8.88;2.10;;;;;;;;;;4961131;28;98920;-85
2023/04/27 04:56:09;;;;;;;6.80;1.95;;;;;;;;;;4944172;28;100326;-85
2023/04/27 04:58:36;;;;;;;5.82;1.92;;;;;;;;;;4924458;28;102876;-84
2023/04/27 05:01:03;;;;;;;8.07;2.10;;;;;;;;;;4948049;28;98469;-85
2023/04/27 05:03:29;;;;;;;6.30;1.88;;;;;;;;;;4946410;28;100166;-85
2023/04/27 05:05:56;;;;;;;10.02;2.45;;;;;;;;;;4948686;28;99861;-85
2023/04/27 05:08:23;;;;;;;5.78;1.83;;;;;;;;;;4948131;28;98535;-85
2023/04/27 05:10:53;;;;;;;5.30;1.90;;;;;;;;;;4949035;28;98667;-84
2023/04/27 05:13:20;;;;;;;4.85;2.00;;;;;;;;;;4944395;28;98624;-84
2023/04/27 05:15:46;;;;;;;5.07;1.88;;;;;;;;;;4946689;28;99201;-84
2023/04/27 05:18:13;;;;;;;3.63;1.70;;;;;;;;;;4945909;28;98689;-84
2023/04/27 05:20:40;;;;;;;6.70;2.25;;;;;;;;;;4947278;28;98587;-84
2023/04/27 05:23:06;;;;;;;5.13;1.90;;;;;;;;;;4947219;28;99254;-84
2023/04/27 05:25:33;;;;;;;6.50;1.90;;;;;;;;;;4931453;28;99125;-84
2023/04/27 05:28:00;;;;;;;3.92;1.80;;;;;;;;;;4948025;28;99181;-82
2023/04/27 05:30:26;;;;;;;4.63;1.83;;;;;;;;;;4946671;28;100298;-82
2023/04/27 05:32:53;;;;;;;6.30;1.98;;;;;;;;;;4933509;28;99097;-83
2023/04/27 05:35:20;;;;;;;6.32;1.70;;;;;;;;;;4947257;28;98914;-82
2023/04/27 05:37:46;;;;;;;5.10;1.80;;;;;;;;;;4946348;28;99214;-84
2023/04/27 05:40:14;;;;;;;4.82;1.95;;;;;;;;;;4947366;28;98163;-82
2023/04/27 05:42:40;;;;;;;4.78;1.80;;;;;;;;;;4951097;28;99160;-83
2023/04/27 05:45:07;;;;;;;5.25;1.90;;;;;;;;;;4948848;28;99802;-82
2023/04/27 05:47:33;;;;;;;5.65;1.85;;;;;;;;;;4945822;28;99515;-83
2023/04/27 05:50:00;;;;;;;3.70;1.77;;;;;;;;;;4945488;28;100380;-82
2023/04/27 05:52:29;;;;;;;4.45;1.83;;;;;;;;;;4944421;28;100110;-83
2023/04/27 05:55:00;;;;;;;4.60;1.70;;;;;;;;;;4945473;28;98564;-83
2023/04/27 05:57:26;;;;;;;3.88;1.52;;;;;;;;;;4944482;28;99442;-83
2023/04/27 05:59:53;;;;;;;3.85;1.83;;;;;;;;;;4945019;28;99130;-83
2023/04/27 06:02:19;;;;;;;4.20;1.60;;;;;;;;;;4944302;28;98845;-82
2023/04/27 06:04:46;;;;;;;3.90;1.60;;;;;;;;;;4928091;28;98401;-85
2023/04/27 06:07:13;;;;;;;5.57;1.70;;;;;;;;;;4945745;28;98568;-84
2023/04/27 06:09:41;;;;;;;6.13;1.92;;;;;;;;;;4945286;28;98737;-83
2023/04/27 06:12:08;;;;;;;6.38;1.80;;;;;;;;;;4944224;28;100696;-84
2023/04/27 06:14:35;;;;;;;5.22;2.08;;;;;;;;;;4947798;28;99002;-83
2023/04/27 06:17:02;;;;;;;3.88;1.75;;;;;;;;;;4944708;28;99985;-84
2023/04/27 06:19:29;;;;;;;5.70;1.88;;;;;;;;;;4926898;28;98923;-83
2023/04/27 06:21:55;;;;;;;4.32;1.77;;;;;;;;;;4944990;28;99125;-83
2023/04/27 06:24:22;;;;;;;7.78;1.88;;;;;;;;;;4942676;28;99127;-84
2023/04/27 06:26:48;;;;;;;4.10;1.90;;;;;;;;;;4944666;28;99002;-84
2023/04/27 06:29:15;;;;;;;4.88;2.05;;;;;;;;;;4944734;28;98918;-83
2023/04/27 06:31:42;;;;;;;3.88;1.80;;;;;;;;;;4944939;28;98976;-84
2023/04/27 06:34:08;;;;;;;5.18;1.92;;;;;;;;;;4945212;28;99050;-85
2023/04/27 06:36:35;;;;;;;4.30;1.80;;;;;;;;;;4947423;28;99487;-84
2023/04/27 06:39:01;;;;;;;4.07;2.03;;;;;;;;;;4946417;28;98579;-84
2023/04/27 06:41:28;;;;;;;3.63;1.70;;;;;;;;;;4946278;28;100307;-83
2023/04/27 06:43:55;;;;;;;4.68;1.85;;;;;;;;;;4947601;28;99033;-83
2023/04/27 06:46:23;;;;;;;6.45;2.03;;;;;;;;;;4949219;28;98836;-83
2023/04/27 06:48:51;;;;;;;7.03;2.08;;;;;;;;;;4947289;28;99408;-83
2023/04/27 06:51:17;;;;;;;;;;;;;;;;;;4944307;28;101651;-83
2023/04/27 06:53:44;;;;;;;4.70;1.90;;;;;;;;;;4935738;28;107983;-83
2023/04/27 06:56:11;;;;;;;5.28;1.98;;;;;;;;;;4953679;28;98935;-83
2023/04/27 06:58:37;;;;;;;4.28;1.90;;;;;;;;;;4953912;28;101000;-82
2023/04/27 07:01:04;;;;;;;3.90;1.85;;;;;;;;;;4956507;28;99212;-82
2023/04/27 07:03:33;;;;;;;2.95;1.50;;;;;;;;;;4942478;28;102419;-82
2023/04/27 07:06:00;;;;;;;6.78;1.85;;;;;;;;;;4965386;28;98439;-84
2023/04/27 07:08:26;;;;;;;5.10;1.95;;;;;;;;;;4964888;28;98562;-82
2023/04/27 07:10:53;;;;;;;7.15;1.92;;;;;;;;;;4966078;28;99475;-81
2023/04/27 07:13:19;;;;;;;7.90;2.10;;;;;;;;;;4967152;28;98216;-82
2023/04/27 07:15:45;;;;;;;4.47;1.77;;;;;;;;;;4950852;28;98310;-84
2023/04/27 07:18:12;;;;;;;4.28;1.58;;;;;;;;;;4957133;28;97817;-83
2023/04/27 07:20:40;;;;;;;4.60;1.70;;;;;;;;;;4959347;28;98986;-84
2023/04/27 07:23:06;;;;;;;5.07;1.73;;;;;;;;;;4957424;28;98915;-84
2023/04/27 07:25:34;;;;;;;4.55;1.83;;;;;;;;;;4947633;28;99601;-84
2023/04/27 07:28:01;;;;;;;6.95;1.80;;;;;;;;;;4947167;28;100179;-83
2023/04/27 07:30:29;;;;;;;5.40;1.52;;;;;;;;;;4943731;28;99590;-82
2023/04/27 07:32:59;;;;;;;3.97;1.60;;;;;;;;;;4946700;28;99314;-83
2023/04/27 07:35:26;;;;;;;3.50;1.67;;;;;;;;;;4946254;28;99425;-83
2023/04/27 07:37:55;;;;;;;3.38;1.50;;;;;;;;;;4943512;28;99318;-82
2023/04/27 07:40:22;;;;;;;3.30;1.55;;;;;;;;;;4942197;28;98777;-82
2023/04/27 07:42:50;;;;;;;4.75;1.52;;;;;;;;;;4929204;28;101718;-82
2023/04/27 07:45:16;;;;;;;5.03;1.45;;;;;;;;;;4943215;28;99030;-82
2023/04/27 07:47:43;;;;;;;3.88;1.50;;;;;;;;;;4944182;28;99271;-83
2023/04/27 07:50:10;;;;;;;3.47;1.33;;;;;;;;;;4942748;28;100005;-82
2023/04/27 07:52:36;;;;;;;4.53;1.27;;;;;;;;;;4943293;28;98726;-83
2023/04/27 07:55:03;;;;;;;4.60;1.50;;;;;;;;;;4943465;28;98710;-84
2023/04/27 07:57:30;;;;;;;2.88;1.30;;;;;;;;;;4942797;28;99619;-81
2023/04/27 07:59:56;;;;;;;2.67;1.25;;;;;;;;;;4944335;28;98992;-84
2023/04/27 08:02:25;;;;;;;4.60;1.40;;;;;;;;;;4950742;28;101968;-86
2023/04/27 08:04:52;;;;;;;3.38;1.40;;;;;;;;;;4945858;28;99278;-84
2023/04/27 08:07:19;;;;;;;;;;;;;;;;;;4946894;28;98891;-85
2023/04/27 08:09:46;;;;;;;3.60;1.40;;;;;;;;;;4927562;28;100938;-86
2023/04/27 08:12:12;;;;;;;4.45;1.50;;;;;;;;;;4943181;28;98867;-81
2023/04/27 08:14:39;;;;;;;3.72;1.40;;;;;;;;;;4942315;28;100374;-85
2023/04/27 08:17:05;;;;;;;2.45;1.33;;;;;;;;;;4942883;28;100406;-84
2023/04/27 08:19:32;;;;;;;2.15;1.20;;;;;;;;;;4943749;28;98790;-84
2023/04/27 08:21:59;;;;;;;2.38;1.38;;;;;;;;;;4947066;28;98791;-84
2023/04/27 08:24:25;;;;;;;;;;;;;;;;;;4949330;28;99200;-84
2023/04/27 08:26:52;;;;;;;4.57;1.40;;;;;;;;;;4946037;28;99347;-85
2023/04/27 08:29:19;;;;;;;3.78;1.48;;;;;;;;;;4946470;28;99962;-84
2023/04/27 08:31:54;;;;;;;3.40;1.33;;;;;;;;;;4942012;28;98299;-84
2023/04/27 08:34:22;;;;;;;3.22;1.15;;;;;;;;;;4946760;28;98501;-83
2023/04/27 08:36:49;;;;;;;4.68;1.40;;;;;;;;;;4947810;28;99608;-85
2023/04/27 08:39:17;;;;;;;6.82;1.20;;;;;;;;;;4949447;28;99714;-84
2023/04/27 08:41:45;;;;;;;5.13;1.40;;;;;;;;;;4947302;28;101390;-85
2023/04/27 08:44:12;;;;;;;2.85;1.33;;;;;;;;;;4953062;28;99167;-85
2023/04/27 08:46:38;;;;;;;2.90;1.30;;;;;;;;;;4960680;28;99419;-85
2023/04/27 08:49:06;;;;;;;7.05;1.40;;;;;;;;;;4958823;28;99474;-83
2023/04/27 08:51:33;;;;;;;3.40;1.33;;;;;;;;;;4960543;28;98505;-84
2023/04/27 08:54:00;;;;;;;2.63;1.20;;;;;;;;;;4962213;28;98469;-87
2023/04/27 08:56:27;;;;;;;2.65;1.20;;;;;;;;;;4955525;28;97929;-86
2023/04/27 08:58:55;;;;;;;3.00;1.25;;;;;;;;;;4952752;28;98596;-86
2023/04/27 09:01:22;;;;;;;3.90;1.20;;;;;;;;;;4940699;28;100154;-87
2023/04/27 09:03:54;;;;;;;2.42;1.10;;;;;;;;;;4950573;28;99832;-88
2023/04/27 09:06:31;;;;;;;4.40;1.10;;;;;;;;;;4948485;28;98731;-87
2023/04/27 09:08:58;;;;;;;3.22;1.10;;;;;;;;;;4954308;28;98835;-88
2023/04/27 09:11:30;;;;;;;3.35;1.20;;;;;;;;;;4933568;28;98696;-86
2023/04/27 09:13:57;;;;;;;2.67;1.20;;;;;;;;;;4951110;28;98470;-85
2023/04/27 09:16:25;;;;;;;2.28;1.30;;;;;;;;;;4949580;28;99153;-85
2023/04/27 09:18:52;;;;;;;3.05;1.23;;;;;;;;;;4957135;28;98633;-90
2023/04/27 09:21:25;;;;;;;2.40;1.20;;;;;;;;;;4956311;28;99191;-84
2023/04/27 09:23:52;;;;;;;3.78;1.20;;;;;;;;;;4943845;28;99225;-85
2023/04/27 09:26:23;;;;;;;2.20;1.15;;;;;;;;;;4945068;28;99008;-83
2023/04/27 09:28:50;;;;;;;3.13;1.10;;;;;;;;;;4945764;28;99283;-85
2023/04/27 09:31:17;;;;;;;2.80;1.13;;;;;;;;;;4948218;28;100322;-83
2023/04/27 09:33:44;;;;;;;2.55;1.25;;;;;;;;;;4947559;28;98847;-85
2023/04/27 09:36:11;;;;;;;2.53;1.20;;;;;;;;;;4951368;28;99198;-85
2023/04/27 09:38:38;;;;;;;4.53;1.20;;;;;;;;;;4929211;28;98791;-84
2023/04/27 09:41:05;;;;;;;2.50;1.10;;;;;;;;;;4946555;28;98941;-84
2023/04/27 09:43:32;;;;;;;2.80;1.20;;;;;;;;;;4948809;28;99354;-84
2023/04/27 09:45:58;;;;;;;2.47;1.23;;;;;;;;;;4947189;28;98203;-84
2023/04/27 09:48:25;;;;;;;3.30;1.25;;;;;;;;;;4945215;28;98772;-84
2023/04/27 09:50:52;;;;;;;3.15;1.30;;;;;;;;;;4947304;28;99295;-84
2023/04/27 09:53:21;;;;;;;2.30;1.30;;;;;;;;;;4950640;28;99519;-86
2023/04/27 09:55:47;;;;;;;2.90;1.40;;;;;;;;;;4941472;28;100439;-85
2023/04/27 09:58:35;;;;;;;2.63;1.13;;;;;;;;;;4945007;28;98862;-85
2023/04/27 10:01:02;;;;;;;;;;;;;;;;;;4948136;28;99797;-85
2023/04/27 10:03:28;;;;;;;3.85;1.20;;;;;;;;;;4949880;28;106375;-85
2023/04/27 10:06:07;;;;;;;2.25;1.13;;;;;;;;;;4949699;28;98499;-85
2023/04/27 10:08:34;;;;;;;2.10;1.20;;;;;;;;;;4950522;28;99038;-85
2023/04/27 10:11:01;;;;;;;;;;;;;;;;;;4952393;28;98357;-86
2023/04/27 10:13:30;;;;;;;2.50;1.25;;;;;;;;;;4955492;28;98872;-85
2023/04/27 10:15:56;;;;;;;2.25;1.30;;;;;;;;;;4948368;28;99146;-86
2023/04/27 10:18:30;;;;;;;3.88;1.20;;;;;;;;;;4948758;28;99628;-86
2023/04/27 10:21:08;;;;;;;2.63;1.27;;;;;;;;;;4931493;28;99423;-86
2023/04/27 10:23:44;;;;;;;3.17;1.10;;;;;;;;;;4945189;28;99127;-86
2023/04/27 10:26:10;;;;;;;2.22;1.20;;;;;;;;;;4945624;28;99320;-86
2023/04/27 10:28:38;;;;;;;2.50;1.30;;;;;;;;;;4958511;28;98457;-85
2023/04/27 10:31:08;;;;;;;2.97;1.20;;;;;;;;;;4936724;28;99031;-85
2023/04/27 10:33:41;;;;;;;1.80;1.10;;;;;;;;;;4938949;28;98766;-85
2023/04/27 10:36:13;;;;;;;2.83;1.20;;;;;;;;;;4948965;28;99786;-86
2023/04/27 10:38:40;;;;;;;2.30;1.20;;;;;;;;;;4945776;28;99117;-84
2023/04/27 10:41:12;;;;;;;2.38;1.20;;;;;;;;;;4943943;28;98939;-85
2023/04/27 10:43:39;;;;;;;2.00;1.20;;;;;;;;;;4944783;28;100831;-84
2023/04/27 10:46:07;;;;;;;3.92;1.30;;;;;;;;;;4928268;28;100447;-85
2023/04/27 10:48:33;;;;;;;;;;;;;;;;;;4943819;28;98922;-84
2023/04/27 10:51:00;;;;;;;2.50;1.30;;;;;;;;;;4928038;28;110499;-83
2023/04/27 10:53:32;;;;;;;2.35;1.20;;;;;;;;;;4942860;28;98641;-84
2023/04/27 10:55:59;;;;;;;1.92;1.05;;;;;;;;;;4944278;28;98918;-85
2023/04/27 10:58:25;;;;;;;2.17;1.23;;;;;;;;;;4945378;28;98714;-85
2023/04/27 11:01:11;;;;;;;3.05;1.20;;;;;;;;;;4945497;28;98777;-84
2023/04/27 11:03:37;;;;;;;3.55;1.30;;;;;;;;;;4944263;28;99166;-83
2023/04/27 11:06:05;;;;;;;2.55;1.10;;;;;;;;;;4945378;28;98629;-84
2023/04/27 11:08:33;;;;;;;3.10;1.27;;;;;;;;;;4926949;28;99385;-84
2023/04/27 11:11:00;;;;;;;2.42;1.35;;;;;;;;;;4943975;28;100869;-83
2023/04/27 11:13:27;;;;;;;2.42;1.27;;;;;;;;;;4944620;28;99165;-84
2023/04/27 11:15:54;;;;;;;3.78;1.20;;;;;;;;;;4945445;28;99573;-84
2023/04/27 11:18:22;;;;;;;4.05;1.40;;;;;;;;;;4943441;28;99796;-82
2023/04/27 11:20:51;;;;;;;4.20;1.60;;;;;;;;;;4947332;28;98622;-83
2023/04/27 11:23:35;;;;;;;3.53;1.70;;;;;;;;;;4942664;28;101126;-82
2023/04/27 11:26:08;;;;;;;2.40;1.23;;;;;;;;;;4942277;28;98464;-82
2023/04/27 11:28:34;;;;;;;2.20;1.30;;;;;;;;;;4942826;28;99188;-81
2023/04/27 11:31:01;;;;;;;3.15;1.45;;;;;;;;;;4942850;28;99708;-83
2023/04/27 11:33:28;;;;;;;2.42;1.45;;;;;;;;;;4943327;28;99546;-82
2023/04/27 11:35:55;;;;;;;3.15;1.52;;;;;;;;;;4942649;28;100083;-81
2023/04/27 11:38:22;;;;;;;3.60;1.50;;;;;;;;;;4941095;28;99942;-83
2023/04/27 11:41:18;;;;;;;3.88;1.30;;;;;;;;;;4926844;28;99014;-84
2023/04/27 11:43:48;;;;;;;3.05;1.52;;;;;;;;;;4913310;28;101530;-79
2023/04/27 11:46:21;;;;;;;11.85;2.05;;;;;;;;;;4944321;28;99054;-87
2023/04/27 11:48:48;;;;;;;10.43;2.15;;;;;;;;;;4929228;28;99582;-80
2023/04/27 11:51:14;;;;;;;8.75;1.85;;;;;;;;;;4943729;28;98290;-80
2023/04/27 11:53:41;;;;;;;10.18;2.10;;;;;;;;;;4943129;28;98619;-79
2023/04/27 11:56:09;;;;;;;8.45;1.80;;;;;;;;;;4949000;28;99601;-80
2023/04/27 11:58:37;;;;;;;6.75;1.70;;;;;;;;;;4946778;28;100123;-83
2023/04/27 12:01:04;;;;;;;7.38;2.00;;;;;;;;;;4946837;28;98702;-81
2023/04/27 12:03:31;;;;;;;8.35;2.00;;;;;;;;;;4946588;28;99030;-80
2023/04/27 12:05:58;;;;;;;6.28;1.90;;;;;;;;;;4945595;28;99666;-80
2023/04/27 12:08:41;;;;;;;6.45;1.92;;;;;;;;;;4940053;28;103966;-81
2023/04/27 12:11:08;;;;;;;9.52;2.13;;;;;;;;;;4946048;28;100302;-81
2023/04/27 12:13:35;;;;;;;7.57;1.88;;;;;;;;;;4945780;28;98934;-80
2023/04/27 12:16:02;;;;;;;11.43;2.08;;;;;;;;;;4944840;28;99764;-81
2023/04/27 12:18:28;;;;;;;5.70;1.60;;;;;;;;;;4943773;28;100167;-81
2023/04/27 12:20:55;;;;;;;7.13;1.85;;;;;;;;;;4942944;28;99243;-81
2023/04/27 12:23:21;;;;;;;5.95;1.70;;;;;;;;;;4943453;28;99604;-81
2023/04/27 12:25:48;;;;;;;4.32;1.67;;;;;;;;;;4948469;28;99234;-82
2023/04/27 12:28:17;;;;;;;4.53;1.63;;;;;;;;;;4944522;28;99127;-82
2023/04/27 12:30:44;;;;;;;5.50;1.60;;;;;;;;;;4926899;28;100522;-82
2023/04/27 12:33:11;;;;;;;6.10;1.55;;;;;;;;;;4944851;28;99057;-81
2023/04/27 12:35:38;;;;;;;6.47;1.50;;;;;;;;;;4942156;28;100089;-81
2023/04/27 12:38:04;;;;;;;5.72;1.67;;;;;;;;;;4943806;28;99869;-81
2023/04/27 12:40:31;;;;;;;7.80;2.35;;;;;;;;;;4927416;28;98394;-81
2023/04/27 12:42:58;;;;;;;5.63;1.70;;;;;;;;;;4943176;28;99214;-80
2023/04/27 12:45:26;;;;;;;6.57;1.73;;;;;;;;;;4946289;28;98845;-81
2023/04/27 12:47:53;;;;;;;5.20;1.67;;;;;;;;;;4958309;28;99222;-80
2023/04/27 12:50:30;;;;;;;5.82;1.90;;;;;;;;;;4948437;28;99643;-81
2023/04/27 12:52:58;;;;;;;5.43;1.60;;;;;;;;;;4946329;28;98773;-80
2023/04/27 12:55:25;;;;;;;4.07;1.70;;;;;;;;;;4946446;28;99668;-81
2023/04/27 12:57:59;;;;;;;5.30;1.67;;;;;;;;;;4946787;28;99860;-80
2023/04/27 13:00:26;;;;;;;4.35;1.70;;;;;;;;;;4946539;28;99128;-80
2023/04/27 13:02:53;;;;;;;3.75;1.58;;;;;;;;;;4948836;28;98781;-81
2023/04/27 13:05:21;;;;;;;4.82;1.60;;;;;;;;;;4949320;28;98574;-81
2023/04/27 13:07:47;;;;;;;4.75;1.63;;;;;;;;;;4930041;28;99100;-81
2023/04/27 13:10:15;;;;;;;3.47;1.40;;;;;;;;;;4949515;28;98928;-80
2023/04/27 13:12:41;;;;;;;4.13;1.60;;;;;;;;;;4947452;28;99335;-81
2023/04/27 13:15:08;;;;;;;3.78;1.70;;;;;;;;;;4947338;28;99543;-82
2023/04/27 13:17:34;;;;;;;3.85;1.60;;;;;;;;;;4946551;28;99279;-81
2023/04/27 13:20:01;;;;;;;5.60;1.80;;;;;;;;;;4946996;28;98595;-81
2023/04/27 13:22:28;;;;;;;3.13;1.33;;;;;;;;;;4934982;28;98596;-81
2023/04/27 13:24:55;;;;;;;3.88;1.63;;;;;;;;;;4945591;28;99726;-81
2023/04/27 13:27:24;;;;;;;3.67;1.58;;;;;;;;;;4945494;28;98984;-81
2023/04/27 13:29:50;;;;;;;3.92;1.77;;;;;;;;;;4945815;28;98910;-81
2023/04/27 13:32:17;;;;;;;3.42;1.63;;;;;;;;;;4945639;28;102534;-80
2023/04/27 13:34:44;;;;;;;4.22;1.80;;;;;;;;;;4945449;28;100221;-81
2023/04/27 13:37:11;;;;;;;5.07;2.05;;;;;;;;;;4944471;28;100386;-82
2023/04/27 13:39:40;;;;;;;4.28;1.40;;;;;;;;;;4945094;28;99119;-82
2023/04/27 13:42:07;;;;;;;3.78;1.30;;;;;;;;;;4944878;28;99792;-82
2023/04/27 13:44:33;;;;;;;;;;;;;;;;;;4930206;28;100221;-82
2023/04/27 13:47:00;;;;;;;3.38;1.50;;;;;;;;;;4946324;28;98915;-82
2023/04/27 13:49:26;;;;;;;2.97;1.45;;;;;;;;;;4945129;28;98774;-82
2023/04/27 13:51:53;;;;;;;3.15;1.55;;;;;;;;;;4944487;28;99521;-82
2023/04/27 13:54:20;;;;;;;4.05;1.80;;;;;;;;;;4947692;28;97884;-82
2023/04/27 13:56:47;;;;;;;3.75;1.50;;;;;;;;;;4944429;28;99378;-82
2023/04/27 13:59:15;;;;;;;3.22;1.60;;;;;;;;;;4944699;28;98582;-81
2023/04/27 14:01:42;;;;;;;2.28;1.40;;;;;;;;;;4943324;28;99735;-82
2023/04/27 14:04:08;;;;;;;3.28;1.33;;;;;;;;;;4926861;28;99370;-81
2023/04/27 14:06:35;;;;;;;3.55;1.40;;;;;;;;;;4943788;28;99131;-80
2023/04/27 14:09:02;;;;;;;2.75;1.40;;;;;;;;;;4945084;28;99199;-80
2023/04/27 14:11:29;;;;;;;;;;;;;;;;;;4945389;28;99921;-80
2023/04/27 14:13:56;;;;;;;4.20;1.60;;;;;;;;;;4945809;28;108288;-80
2023/04/27 14:16:23;;;;;;;3.17;1.63;;;;;;;;;;4933577;28;99217;-82
2023/04/27 14:18:51;;;;;;;4.13;1.77;;;;;;;;;;4943523;28;97889;-81
2023/04/27 14:21:17;;;;;;;5.22;1.75;;;;;;;;;;4943407;28;99358;-81
2023/04/27 14:23:44;;;;;;;3.05;1.50;;;;;;;;;;4945372;28;99471;-80
2023/04/27 14:26:11;;;;;;;4.10;1.73;;;;;;;;;;4944348;28;100043;-81
2023/04/27 14:28:37;;;;;;;2.97;1.50;;;;;;;;;;4944617;28;99966;-80
2023/04/27 14:31:04;;;;;;;3.90;1.52;;;;;;;;;;4946793;28;99270;-80
2023/04/27 14:33:31;;;;;;;3.30;1.55;;;;;;;;;;4945094;28;98525;-81
2023/04/27 14:35:58;;;;;;;2.92;1.40;;;;;;;;;;4946672;28;99239;-81
2023/04/27 14:38:25;;;;;;;2.70;1.50;;;;;;;;;;4943845;28;98527;-81
2023/04/27 14:40:51;;;;;;;2.72;1.48;;;;;;;;;;4943157;28;100120;-81
2023/04/27 14:43:18;;;;;;;3.88;1.40;;;;;;;;;;4945574;28;98628;-82
2023/04/27 14:45:44;;;;;;;4.40;1.65;;;;;;;;;;4934135;28;99010;-81